Home > Products > Valid Products > TAF

000
FTUS41 KBOX 190539
TAFACK
TAF
KACK 190539Z 1906/2006 36010KT P6SM SCT040
     FM190700 01011KT P6SM BKN040
     FM191400 03018KT P6SM SCT060
     FM192300 08012KT P6SM FEW250
     FM200200 11008KT P6SM SKC=



000
FTUS41 KBOX 190539
TAFPVD
TAF
KPVD 190539Z 1906/2006 01010KT P6SM SCT040
     FM191100 02010KT P6SM SCT060
     FM192000 08009KT P6SM SKC
     FM200200 13005KT P6SM FEW250=



000
FTUS41 KBOX 190539
TAFBOS
TAF
KBOS 190539Z 1906/2012 33010KT P6SM SCT060
     FM191000 02010KT P6SM SKC
     FM191500 05011KT P6SM SKC
     FM191900 09011KT P6SM SKC
     FM200100 14008KT P6SM SKC
     FM200900 17004KT P6SM FEW250=



000
FTUS41 KBOX 190539
TAFORH
TAF
KORH 190539Z 1906/2006 02008KT P6SM SCT070
     FM191800 06006KT P6SM SKC
     FM192000 10006KT P6SM SKC
     FM200100 14006KT P6SM SKC
     FM200400 20005KT P6SM SKC=



000
FTUS41 KBOX 190539
TAFBDL
TAF
KBDL 190539Z 1906/2012 36010KT P6SM BKN060
     FM190900 36006KT P6SM SCT070
     FM191900 06004KT P6SM SKC
     FM192100 13005KT P6SM SKC
     FM200800 00000KT P6SM SCT250=



000
FTUS41 KBOX 190539
TAFMHT
TAF
KMHT 190539Z 1906/2006 34006KT P6SM SKC
     FM190900 02005KT P6SM SKC
     FM191800 07005KT P6SM SKC
     FM192100 13007KT P6SM SKC
     FM200300 00000KT P6SM SKC=



000
FTUS41 KBOX 190539
TAFBAF
TAF
KBAF 190539Z 1906/2006 36005KT P6SM SCT070
     FM191800 08005KT P6SM SKC
     FM192100 15005KT P6SM SKC=



000
FTUS41 KBOX 190539
TAFBDL
TAF
KBDL 190539Z 1906/2012 36010KT P6SM BKN060
     FM190900 36006KT P6SM SCT070
     FM191900 06004KT P6SM SKC
     FM192100 13005KT P6SM SKC
     FM200800 00000KT P6SM SCT250=



000
FTUS41 KBOX 190539
TAFBAF
TAF
KBAF 190539Z 1906/2006 36005KT P6SM SCT070
     FM191800 08005KT P6SM SKC
     FM192100 15005KT P6SM SKC=



000
FTUS41 KBOX 190539
TAFMHT
TAF
KMHT 190539Z 1906/2006 34006KT P6SM SKC
     FM190900 02005KT P6SM SKC
     FM191800 07005KT P6SM SKC
     FM192100 13007KT P6SM SKC
     FM200300 00000KT P6SM SKC=



000
FTUS41 KBOX 190539
TAFORH
TAF
KORH 190539Z 1906/2006 02008KT P6SM SCT070
     FM191800 06006KT P6SM SKC
     FM192000 10006KT P6SM SKC
     FM200100 14006KT P6SM SKC
     FM200400 20005KT P6SM SKC=



000
FTUS41 KBOX 190539
TAFACK
TAF
KACK 190539Z 1906/2006 36010KT P6SM SCT040
     FM190700 01011KT P6SM BKN040
     FM191400 03018KT P6SM SCT060
     FM192300 08012KT P6SM FEW250
     FM200200 11008KT P6SM SKC=



000
FTUS41 KBOX 190539
TAFBOS
TAF
KBOS 190539Z 1906/2012 33010KT P6SM SCT060
     FM191000 02010KT P6SM SKC
     FM191500 05011KT P6SM SKC
     FM191900 09011KT P6SM SKC
     FM200100 14008KT P6SM SKC
     FM200900 17004KT P6SM FEW250=



000
FTUS41 KBOX 190539
TAFPVD
TAF
KPVD 190539Z 1906/2006 01010KT P6SM SCT040
     FM191100 02010KT P6SM SCT060
     FM192000 08009KT P6SM SKC
     FM200200 13005KT P6SM FEW250=



000
FTUS41 KBOX 190355 AAA
TAFPVD
TAF AMD
KPVD 190355Z 1904/1924 36012KT P6SM BKN070
     FM190800 02011KT P6SM SCT050
     FM191000 02011KT P6SM SCT250
     FM191800 06009KT P6SM SKC
     FM192300 10007KT P6SM SKC=



000
FTUS41 KBOX 190355 AAA
TAFPVD
TAF AMD
KPVD 190355Z 1904/1924 36012KT P6SM BKN070
     FM190800 02011KT P6SM SCT050
     FM191000 02011KT P6SM SCT250
     FM191800 06009KT P6SM SKC
     FM192300 10007KT P6SM SKC=



000
FTUS41 KBOX 190354 AAA
TAFMHT
TAF AMD
KMHT 190354Z 1904/1924 34007KT P6SM SCT080
     FM191400 06004KT P6SM SKC
     FM191800 00000KT P6SM SKC=



000
FTUS41 KBOX 190354 AAA
TAFMHT
TAF AMD
KMHT 190354Z 1904/1924 34007KT P6SM SCT080
     FM191400 06004KT P6SM SKC
     FM191800 00000KT P6SM SKC=



000
FTUS41 KBOX 190354 AAA
TAFBDL
TAF AMD
KBDL 190354Z 1904/2006 36009KT P6SM SCT060
     FM191600 02005KT P6SM SKC
     FM192100 09005KT P6SM SKC
     FM200000 15006KT P6SM SKC=



000
FTUS41 KBOX 190354 AAA
TAFBDL
TAF AMD
KBDL 190354Z 1904/2006 36009KT P6SM SCT060
     FM191600 02005KT P6SM SKC
     FM192100 09005KT P6SM SKC
     FM200000 15006KT P6SM SKC=



000
FTUS41 KBOX 190353 AAA
TAFBOS
TAF AMD
KBOS 190353Z 1904/2006 33010KT P6SM BKN080
     FM190600 36011KT P6SM SCT080
     FM191400 06010KT P6SM SKC
     FM191600 10007KT P6SM SKC
     FM200200 14006KT P6SM SKC=



000
FTUS41 KBOX 190353 AAA
TAFBOS
TAF AMD
KBOS 190353Z 1904/2006 33010KT P6SM BKN080
     FM190600 36011KT P6SM SCT080
     FM191400 06010KT P6SM SKC
     FM191600 10007KT P6SM SKC
     FM200200 14006KT P6SM SKC=



000
FTUS41 KBOX 182326
TAFBOS
TAF
KBOS 182326Z 1900/2006 01005KT P6SM BKN050
     FM190600 02011KT P6SM SCT250
     FM191400 06010KT P6SM SKC
     FM191600 10007KT P6SM SKC
     FM200200 14006KT P6SM SKC=



000
FTUS41 KBOX 182326
TAFPVD
TAF
KPVD 182326Z 1900/1924 33006KT P6SM SCT060
     FM190500 02009KT P6SM BKN040
     FM190800 02011KT P6SM SCT050
     FM191000 02011KT P6SM SCT250
     FM191800 06009KT P6SM SKC
     FM192300 10007KT P6SM SKC=



000
FTUS41 KBOX 182326
TAFORH
TAF
KORH 182326Z 1900/1924 34004KT P6SM BKN100
     FM190500 01008KT P6SM SCT250
     FM191400 05009KT P6SM SKC
     FM192000 09007KT P6SM SKC=



000
FTUS41 KBOX 182326
TAFBAF
TAF
KBAF 182326Z 1900/1924 35004KT P6SM FEW100
     FM190500 01007KT P6SM SCT250
     FM191800 VRB03KT P6SM SKC=



000
FTUS41 KBOX 182326
TAFACK
TAF
KACK 182326Z 1900/1924 VRB03KT P6SM FEW250
     FM190400 01013KT P6SM SCT040
     FM190600 02017KT P6SM BKN040
     FM191100 03019KT P6SM SCT040
     FM191400 03019KT P6SM SCT250
     FM192300 07012KT P6SM SKC=



000
FTUS41 KBOX 182326
TAFMHT
TAF
KMHT 182326Z 1900/1924 35012KT P6SM BKN090
     FM190200 35006KT P6SM SCT250
     FM191400 06004KT P6SM SKC
     FM191800 00000KT P6SM SKC=



000
FTUS41 KBOX 182326
TAFBDL
TAF
KBDL 182326Z 1900/2006 33006KT P6SM BKN060
     FM190600 36009KT P6SM SCT070
     FM191600 02005KT P6SM SKC
     FM192100 09005KT P6SM SKC
     FM200000 15006KT P6SM SKC=



000
FTUS41 KBOX 182326
TAFBAF
TAF
KBAF 182326Z 1900/1924 35004KT P6SM FEW100
     FM190500 01007KT P6SM SCT250
     FM191800 VRB03KT P6SM SKC=



000
FTUS41 KBOX 182326
TAFMHT
TAF
KMHT 182326Z 1900/1924 35012KT P6SM BKN090
     FM190200 35006KT P6SM SCT250
     FM191400 06004KT P6SM SKC
     FM191800 00000KT P6SM SKC=



000
FTUS41 KBOX 182326
TAFACK
TAF
KACK 182326Z 1900/1924 VRB03KT P6SM FEW250
     FM190400 01013KT P6SM SCT040
     FM190600 02017KT P6SM BKN040
     FM191100 03019KT P6SM SCT040
     FM191400 03019KT P6SM SCT250
     FM192300 07012KT P6SM SKC=



000
FTUS41 KBOX 182326
TAFBDL
TAF
KBDL 182326Z 1900/2006 33006KT P6SM BKN060
     FM190600 36009KT P6SM SCT070
     FM191600 02005KT P6SM SKC
     FM192100 09005KT P6SM SKC
     FM200000 15006KT P6SM SKC=



000
FTUS41 KBOX 182326
TAFORH
TAF
KORH 182326Z 1900/1924 34004KT P6SM BKN100
     FM190500 01008KT P6SM SCT250
     FM191400 05009KT P6SM SKC
     FM192000 09007KT P6SM SKC=



000
FTUS41 KBOX 182326
TAFBOS
TAF
KBOS 182326Z 1900/2006 01005KT P6SM BKN050
     FM190600 02011KT P6SM SCT250
     FM191400 06010KT P6SM SKC
     FM191600 10007KT P6SM SKC
     FM200200 14006KT P6SM SKC=



000
FTUS41 KBOX 182326
TAFPVD
TAF
KPVD 182326Z 1900/1924 33006KT P6SM SCT060
     FM190500 02009KT P6SM BKN040
     FM190800 02011KT P6SM SCT050
     FM191000 02011KT P6SM SCT250
     FM191800 06009KT P6SM SKC
     FM192300 10007KT P6SM SKC=



000
FTUS41 KBOX 182100 AAB
TAFBOS
TAF AMD
KBOS 182100Z 1821/1924 12005KT P6SM SCT050 BKN100
     FM182300 08005KT P6SM BKN050
     FM190000 01005KT P6SM BKN040
     FM190600 02011KT P6SM SCT050
     FM191000 02010KT P6SM FEW250
     FM191500 06010KT P6SM SKC
     FM192100 10007KT P6SM SKC=



000
FTUS41 KBOX 182100 AAA
TAFBDL
TAF AMD
KBDL 182100Z 1821/1924 33006KT P6SM FEW050 FEW120
     FM190000 34005KT P6SM BKN060
     FM190600 36009KT P6SM SCT035
     FM191000 36007KT P6SM FEW250
     FM192000 06005KT P6SM SKC
     FM192300 14006KT P6SM SKC=



000
FTUS41 KBOX 182100 AAA
TAFBDL
TAF AMD
KBDL 182100Z 1821/1924 33006KT P6SM FEW050 FEW120
     FM190000 34005KT P6SM BKN060
     FM190600 36009KT P6SM SCT035
     FM191000 36007KT P6SM FEW250
     FM192000 06005KT P6SM SKC
     FM192300 14006KT P6SM SKC=



000
FTUS41 KBOX 182100 AAB
TAFBOS
TAF AMD
KBOS 182100Z 1821/1924 12005KT P6SM SCT050 BKN100
     FM182300 08005KT P6SM BKN050
     FM190000 01005KT P6SM BKN040
     FM190600 02011KT P6SM SCT050
     FM191000 02010KT P6SM FEW250
     FM191500 06010KT P6SM SKC
     FM192100 10007KT P6SM SKC=



000
FTUS41 KBOX 182100 AAA
TAFPVD
TAF AMD
KPVD 182100Z 1821/1918 35005KT P6SM FEW060 FEW100
     FM190100 36005KT P6SM BKN050
     FM190300 03009KT P6SM BKN035
     FM190800 02011KT P6SM SCT040
     FM191100 02012KT P6SM FEW250=



000
FTUS41 KBOX 182100 AAA
TAFMHT
TAF AMD
KMHT 182100Z 1821/1918 34008KT P6SM FEW050 BKN100
     FM182300 33008KT P6SM BKN040
     FM190200 34007KT P6SM SCT250
     FM191400 06004KT P6SM SKC=



000
FTUS41 KBOX 182100 AAA
TAFMHT
TAF AMD
KMHT 182100Z 1821/1918 34008KT P6SM FEW050 BKN100
     FM182300 33008KT P6SM BKN040
     FM190200 34007KT P6SM SCT250
     FM191400 06004KT P6SM SKC=



000
FTUS41 KBOX 182100 AAA
TAFPVD
TAF AMD
KPVD 182100Z 1821/1918 35005KT P6SM FEW060 FEW100
     FM190100 36005KT P6SM BKN050
     FM190300 03009KT P6SM BKN035
     FM190800 02011KT P6SM SCT040
     FM191100 02012KT P6SM FEW250=



000
FTUS41 KBOX 181818 AAA
TAFBOS
TAF AMD
KBOS 181818Z 1818/1924 12005KT P6SM SCT050 SCT250
     FM182200 07004KT P6SM FEW250
     FM190000 36007KT P6SM SCT060
     FM191400 04008KT P6SM SKC
     FM191800 08007KT P6SM SKC
     FM192200 12006KT P6SM SKC=



000
FTUS41 KBOX 181818 AAA
TAFBOS
TAF AMD
KBOS 181818Z 1818/1924 12005KT P6SM SCT050 SCT250
     FM182200 07004KT P6SM FEW250
     FM190000 36007KT P6SM SCT060
     FM191400 04008KT P6SM SKC
     FM191800 08007KT P6SM SKC
     FM192200 12006KT P6SM SKC=



000
FTUS41 KBOX 181742
TAFBAF
TAF
KBAF 181742Z 1818/1918 32005KT P6SM SCT250
     FM191300 03005KT P6SM SKC
     FM191600 09004KT P6SM SKC=



000
FTUS41 KBOX 181742
TAFBOS
TAF
KBOS 181742Z 1818/1924 02005KT P6SM SCT050 SCT250
     FM182000 07004KT P6SM FEW250
     FM190000 36007KT P6SM SCT060
     FM191400 04008KT P6SM SKC
     FM191800 08007KT P6SM SKC
     FM192200 12006KT P6SM SKC=



000
FTUS41 KBOX 181742
TAFMHT
TAF
KMHT 181742Z 1818/1918 32006KT P6SM FEW080
     FM182100 34008KT P6SM BKN060
     FM190200 35006KT P6SM SCT250
     FM191400 05004KT P6SM SKC=



000
FTUS41 KBOX 181742
TAFPVD
TAF
KPVD 181742Z 1818/1918 02005KT P6SM SKC
     FM190300 36007KT P6SM SCT050
     FM190800 02009KT P6SM FEW250
     FM191700 06007KT P6SM SKC=



000
FTUS41 KBOX 181742
TAFBDL
TAF
KBDL 181742Z 1818/1924 33004KT P6SM SCT250
     FM191300 03006KT P6SM SKC
     FM191800 09004KT P6SM SKC=



000
FTUS41 KBOX 181742
TAFORH
TAF
KORH 181742Z 1818/1918 34006KT P6SM FEW070
     FM190200 36007KT P6SM SCT060
     FM191300 04007KT P6SM SKC=



000
FTUS41 KBOX 181742
TAFACK
TAF
KACK 181742Z 1818/1918 35008KT P6SM SKC
     FM190000 36004KT P6SM SKC
     FM190200 01008KT P6SM SCT250
     FM190500 02013KT P6SM SCT050
     FM191300 03015G23KT P6SM SCT250=



000
FTUS41 KBOX 181742
TAFPVD
TAF
KPVD 181742Z 1818/1918 02005KT P6SM SKC
     FM190300 36007KT P6SM SCT050
     FM190800 02009KT P6SM FEW250
     FM191700 06007KT P6SM SKC=



000
FTUS41 KBOX 181742
TAFACK
TAF
KACK 181742Z 1818/1918 35008KT P6SM SKC
     FM190000 36004KT P6SM SKC
     FM190200 01008KT P6SM SCT250
     FM190500 02013KT P6SM SCT050
     FM191300 03015G23KT P6SM SCT250=



000
FTUS41 KBOX 181742
TAFORH
TAF
KORH 181742Z 1818/1918 34006KT P6SM FEW070
     FM190200 36007KT P6SM SCT060
     FM191300 04007KT P6SM SKC=



000
FTUS41 KBOX 181742
TAFBDL
TAF
KBDL 181742Z 1818/1924 33004KT P6SM SCT250
     FM191300 03006KT P6SM SKC
     FM191800 09004KT P6SM SKC=



000
FTUS41 KBOX 181742
TAFBAF
TAF
KBAF 181742Z 1818/1918 32005KT P6SM SCT250
     FM191300 03005KT P6SM SKC
     FM191600 09004KT P6SM SKC=



000
FTUS41 KBOX 181742
TAFBOS
TAF
KBOS 181742Z 1818/1924 02005KT P6SM SCT050 SCT250
     FM182000 07004KT P6SM FEW250
     FM190000 36007KT P6SM SCT060
     FM191400 04008KT P6SM SKC
     FM191800 08007KT P6SM SKC
     FM192200 12006KT P6SM SKC=



000
FTUS41 KBOX 181742
TAFMHT
TAF
KMHT 181742Z 1818/1918 32006KT P6SM FEW080
     FM182100 34008KT P6SM BKN060
     FM190200 35006KT P6SM SCT250
     FM191400 05004KT P6SM SKC=



000
FTUS41 KBOX 181459 AAA
TAFBDL
TAF AMD
KBDL 181459Z 1815/1918 VRB03KT P6SM FEW200
     FM182100 33006KT P6SM SCT250
     FM182300 36005KT P6SM BKN070
     FM190200 01005KT P6SM SCT250
     FM191500 06005KT P6SM SKC=



000
FTUS41 KBOX 181459 AAA
TAFBDL
TAF AMD
KBDL 181459Z 1815/1918 VRB03KT P6SM FEW200
     FM182100 33006KT P6SM SCT250
     FM182300 36005KT P6SM BKN070
     FM190200 01005KT P6SM SCT250
     FM191500 06005KT P6SM SKC=



000
FTUS41 KBOX 181459 AAA
TAFBOS
TAF AMD
KBOS 181459Z 1815/1918 32006KT P6SM FEW250
     FM181800 08005KT P6SM SCT250
     FM182300 02006KT P6SM BKN060
     FM190700 01010KT P6SM FEW250
     FM191500 05008KT P6SM SKC=



000
FTUS41 KBOX 181459 AAA
TAFPVD
TAF AMD
KPVD 181459Z 1815/1912 33008KT P6SM FEW250
     FM190000 35005KT P6SM BKN060
     FM190200 35006KT P6SM SCT060=



000
FTUS41 KBOX 181459 AAA
TAFBOS
TAF AMD
KBOS 181459Z 1815/1918 32006KT P6SM FEW250
     FM181800 08005KT P6SM SCT250
     FM182300 02006KT P6SM BKN060
     FM190700 01010KT P6SM FEW250
     FM191500 05008KT P6SM SKC=



000
FTUS41 KBOX 181459 AAA
TAFPVD
TAF AMD
KPVD 181459Z 1815/1912 33008KT P6SM FEW250
     FM190000 35005KT P6SM BKN060
     FM190200 35006KT P6SM SCT060=



000
FTUS41 KBOX 181459 AAA
TAFMHT
TAF AMD
KMHT 181459Z 1815/1912 32005KT P6SM FEW040 FEW200
     FM181800 33006KT P6SM BKN050
     FM182300 34007KT P6SM SCT060=



000
FTUS41 KBOX 181459 AAA
TAFMHT
TAF AMD
KMHT 181459Z 1815/1912 32005KT P6SM FEW040 FEW200
     FM181800 33006KT P6SM BKN050
     FM182300 34007KT P6SM SCT060=



000
FTUS41 KBOX 181242 AAA
TAFBAF
TAF AMD
KBAF 181242Z 1813/1912 VRB03KT P6SM SKC
     FM182100 34006KT P6SM SCT060
     FM182300 34005KT P6SM BKN060
     FM190200 35005KT P6SM SCT250=



000
FTUS41 KBOX 181242 AAA
TAFBAF
TAF AMD
KBAF 181242Z 1813/1912 VRB03KT P6SM SKC
     FM182100 34006KT P6SM SCT060
     FM182300 34005KT P6SM BKN060
     FM190200 35005KT P6SM SCT250=



000
FTUS41 KBOX 181123
TAFACK
TAF
KACK 181123Z 1812/1912 35005KT P6SM SKC
     FM190000 36004KT P6SM SCT250
     FM190200 01008KT P6SM SCT250=



000
FTUS41 KBOX 181123
TAFBOS
TAF
KBOS 181123Z 1812/1918 29006KT P6SM FEW200
     FM181500 02005KT P6SM FEW250
     FM181700 09005KT P6SM SCT250
     FM182300 02006KT P6SM BKN060
     FM190700 01010KT P6SM FEW250
     FM191500 05008KT P6SM SKC=



000
FTUS41 KBOX 181123
TAFORH
TAF
KORH 181123Z 1812/1912 30007KT P6SM FEW200
     FM182200 34006KT P6SM BKN060
     FM190200 35007KT P6SM SCT060=



000
FTUS41 KBOX 181123
TAFPVD
TAF
KPVD 181123Z 1812/1912 32004KT P6SM SKC
     FM190000 35005KT P6SM BKN060
     FM190200 35006KT P6SM SCT060=



000
FTUS41 KBOX 181123
TAFBAF
TAF
KBAF 181123Z 1812/1912 00000KT 3SM BR FEW002
     FM181300 VRB03KT P6SM FEW002
     FM182100 34006KT P6SM SCT060
     FM182300 34005KT P6SM BKN060
     FM190200 35005KT P6SM SCT250=



000
FTUS41 KBOX 181123
TAFBDL
TAF
KBDL 181123Z 1812/1918 VRB03KT P6SM FEW200
     FM182100 33006KT P6SM SCT250
     FM182300 36005KT P6SM BKN070
     FM190200 01005KT P6SM SCT250
     FM191500 06005KT P6SM SKC=



000
FTUS41 KBOX 181123
TAFBDL
TAF
KBDL 181123Z 1812/1918 VRB03KT P6SM FEW200
     FM182100 33006KT P6SM SCT250
     FM182300 36005KT P6SM BKN070
     FM190200 01005KT P6SM SCT250
     FM191500 06005KT P6SM SKC=



000
FTUS41 KBOX 181123
TAFMHT
TAF
KMHT 181123Z 1812/1912 32004KT P6SM FEW070
     FM181800 33006KT P6SM BKN080
     FM182300 34007KT P6SM SCT060=



000
FTUS41 KBOX 181123
TAFORH
TAF
KORH 181123Z 1812/1912 30007KT P6SM FEW200
     FM182200 34006KT P6SM BKN060
     FM190200 35007KT P6SM SCT060=



000
FTUS41 KBOX 181123
TAFPVD
TAF
KPVD 181123Z 1812/1912 32004KT P6SM SKC
     FM190000 35005KT P6SM BKN060
     FM190200 35006KT P6SM SCT060=



000
FTUS41 KBOX 181123
TAFBAF
TAF
KBAF 181123Z 1812/1912 00000KT 3SM BR FEW002
     FM181300 VRB03KT P6SM FEW002
     FM182100 34006KT P6SM SCT060
     FM182300 34005KT P6SM BKN060
     FM190200 35005KT P6SM SCT250=



000
FTUS41 KBOX 180758 AAA
TAFBOS
TAF AMD
KBOS 180758Z 1808/1912 28005KT P6SM SKC
     FM181500 34006KT P6SM SCT050
     FM181800 03007KT P6SM BKN050
     FM190200 36008KT P6SM SCT050=



000
FTUS41 KBOX 180758 AAA
TAFBOS
TAF AMD
KBOS 180758Z 1808/1912 28005KT P6SM SKC
     FM181500 34006KT P6SM SCT050
     FM181800 03007KT P6SM BKN050
     FM190200 36008KT P6SM SCT050=



000
FTUS41 KBOX 180758 AAA
TAFMHT
TAF AMD
KMHT 180758Z 1808/1906 VRB03KT P6SM FEW005
     FM181200 VRB03KT P6SM SKC
     FM181500 33006KT P6SM SCT050
     FM190100 35007KT P6SM SCT250=



000
FTUS41 KBOX 180758 AAA
TAFMHT
TAF AMD
KMHT 180758Z 1808/1906 VRB03KT P6SM FEW005
     FM181200 VRB03KT P6SM SKC
     FM181500 33006KT P6SM SCT050
     FM190100 35007KT P6SM SCT250=



000
FTUS41 KBOX 180755 AAA
TAFPVD
TAF AMD
KPVD 180755Z 1808/1906 26005KT P6SM SKC
     FM181500 35004KT P6SM SCT050
     FM190200 35006KT P6SM SCT040=



000
FTUS41 KBOX 180755 AAA
TAFPVD
TAF AMD
KPVD 180755Z 1808/1906 26005KT P6SM SKC
     FM181500 35004KT P6SM SCT050
     FM190200 35006KT P6SM SCT040=



000
FTUS41 KBOX 180754 AAA
TAFBDL
TAF AMD
KBDL 180754Z 1808/1912 VRB03KT P6SM SKC
     FM181600 35004KT P6SM SCT050
     FM190200 35005KT P6SM SCT250=



000
FTUS41 KBOX 180754 AAA
TAFBDL
TAF AMD
KBDL 180754Z 1808/1912 VRB03KT P6SM SKC
     FM181600 35004KT P6SM SCT050
     FM190200 35005KT P6SM SCT250=



000
FTUS41 KBOX 180651 AAA
TAFBAF
TAF AMD
KBAF 180651Z 1807/1906 00000KT 3SM BR SKC
      TEMPO 1807/1810 1/4SM FG VV001
     FM181200 VRB03KT P6SM SKC
     FM181500 34005KT P6SM SCT050
     FM181700 31004KT P6SM BKN050
     FM190200 35005KT P6SM SCT050=



000
FTUS41 KBOX 180651 AAA
TAFBAF
TAF AMD
KBAF 180651Z 1807/1906 00000KT 3SM BR SKC
      TEMPO 1807/1810 1/4SM FG VV001
     FM181200 VRB03KT P6SM SKC
     FM181500 34005KT P6SM SCT050
     FM181700 31004KT P6SM BKN050
     FM190200 35005KT P6SM SCT050=



000
FTUS41 KBOX 180521
TAFMHT
TAF
KMHT 180521Z 1806/1906 VRB03KT P6SM SKC
     FM181500 33006KT P6SM SCT050
     FM190100 35007KT P6SM SCT250=



000
FTUS41 KBOX 180521
TAFBOS
TAF
KBOS 180521Z 1806/1912 28004KT P6SM SKC
     FM181500 34006KT P6SM SCT050
     FM181800 03007KT P6SM BKN050
     FM190200 36008KT P6SM SCT050=



000
FTUS41 KBOX 180521
TAFBDL
TAF
KBDL 180521Z 1806/1912 00000KT P6SM SKC
     FM181600 35004KT P6SM SCT050
     FM190200 35005KT P6SM SCT250=



000
FTUS41 KBOX 180521
TAFACK
TAF
KACK 180521Z 1806/1906 VRB03KT P6SM SKC
     FM181200 34010KT P6SM SKC
     FM181900 03012KT P6SM SCT050
     FM190500 02013G20KT P6SM SCT050=



000
FTUS41 KBOX 180521
TAFPVD
TAF
KPVD 180521Z 1806/1906 26003KT P6SM SKC
     FM181500 35004KT P6SM SCT050
     FM190200 35006KT P6SM SCT040=



000
FTUS41 KBOX 180521
TAFBAF
TAF
KBAF 180521Z 1806/1906 00000KT P6SM SKC
      TEMPO 1806/1810 3SM BR FEW002
     FM181500 34005KT P6SM SCT050
     FM181700 31004KT P6SM BKN050
     FM190200 35005KT P6SM SCT050=



000
FTUS41 KBOX 180521
TAFORH
TAF
KORH 180521Z 1806/1906 26005KT P6SM SKC
     FM181000 30006KT P6SM SCT050
     FM181700 32005KT P6SM BKN050
     FM190200 35007KT P6SM SCT040=



000
FTUS41 KBOX 180521
TAFBDL
TAF
KBDL 180521Z 1806/1912 00000KT P6SM SKC
     FM181600 35004KT P6SM SCT050
     FM190200 35005KT P6SM SCT250=



000
FTUS41 KBOX 180521
TAFPVD
TAF
KPVD 180521Z 1806/1906 26003KT P6SM SKC
     FM181500 35004KT P6SM SCT050
     FM190200 35006KT P6SM SCT040=



000
FTUS41 KBOX 180521
TAFBAF
TAF
KBAF 180521Z 1806/1906 00000KT P6SM SKC
      TEMPO 1806/1810 3SM BR FEW002
     FM181500 34005KT P6SM SCT050
     FM181700 31004KT P6SM BKN050
     FM190200 35005KT P6SM SCT050=



000
FTUS41 KBOX 180521
TAFMHT
TAF
KMHT 180521Z 1806/1906 VRB03KT P6SM SKC
     FM181500 33006KT P6SM SCT050
     FM190100 35007KT P6SM SCT250=



000
FTUS41 KBOX 180521
TAFORH
TAF
KORH 180521Z 1806/1906 26005KT P6SM SKC
     FM181000 30006KT P6SM SCT050
     FM181700 32005KT P6SM BKN050
     FM190200 35007KT P6SM SCT040=



000
FTUS41 KBOX 180521
TAFBOS
TAF
KBOS 180521Z 1806/1912 28004KT P6SM SKC
     FM181500 34006KT P6SM SCT050
     FM181800 03007KT P6SM BKN050
     FM190200 36008KT P6SM SCT050=



000
FTUS41 KBOX 180521
TAFACK
TAF
KACK 180521Z 1806/1906 VRB03KT P6SM SKC
     FM181200 34010KT P6SM SKC
     FM181900 03012KT P6SM SCT050
     FM190500 02013G20KT P6SM SCT050=



000
FTUS41 KBOX 180358 AAA
TAFBAF
TAF AMD
KBAF 180358Z 1804/1824 00000KT 2SM BR SKC
     FM181200 36006KT P6SM SCT250
     FM181800 34007KT P6SM BKN045=



000
FTUS41 KBOX 180358 AAA
TAFBAF
TAF AMD
KBAF 180358Z 1804/1824 00000KT 2SM BR SKC
     FM181200 36006KT P6SM SCT250
     FM181800 34007KT P6SM BKN045=



000
FTUS41 KBOX 172322
TAFBAF
TAF
KBAF 172322Z 1800/1824 00000KT P6SM SKC
     FM181400 36006KT P6SM SCT250
     FM181800 34007KT P6SM BKN045=



000
FTUS41 KBOX 172322
TAFBOS
TAF
KBOS 172322Z 1800/1906 17006KT P6SM SCT060
     FM180200 23005KT P6SM SKC
     FM181100 29007KT P6SM FEW250
     FM181700 35007KT P6SM SCT250
     FM181900 05008KT P6SM BKN050
     FM190200 36009KT P6SM SCT250=



000
FTUS41 KBOX 172322
TAFACK
TAF
KACK 172322Z 1800/1824 23005KT P6SM SCT020
     FM180600 31004KT P6SM SKC
     FM181200 34008KT P6SM SKC
     FM182100 02008KT P6SM FEW250=



000
FTUS41 KBOX 172322
TAFORH
TAF
KORH 172322Z 1800/1824 VRB03KT P6SM SKC
     FM181400 32007KT P6SM SCT250
     FM181800 31007KT P6SM BKN050=



000
FTUS41 KBOX 172322
TAFPVD
TAF
KPVD 172322Z 1800/1824 21005KT P6SM SCT060
     FM180300 31004KT P6SM SKC
     FM181500 34008KT P6SM FEW250
     FM181800 32007KT P6SM SCT050
     FM182300 33006KT P6SM BKN050=



000
FTUS41 KBOX 172322
TAFBDL
TAF
KBDL 172322Z 1800/1906 VRB03KT P6SM SKC
     FM181800 32006KT P6SM BKN040
     FM190200 35006KT P6SM SCT250=



000
FTUS41 KBOX 172322
TAFMHT
TAF
KMHT 172322Z 1800/1824 23004KT P6SM BKN060
     FM180200 00000KT P6SM SKC
     FM181500 33007KT P6SM SCT250
     FM181700 32007KT P6SM BKN050
     FM182200 33008KT P6SM SCT040=



000
FTUS41 KBOX 172322
TAFPVD
TAF
KPVD 172322Z 1800/1824 21005KT P6SM SCT060
     FM180300 31004KT P6SM SKC
     FM181500 34008KT P6SM FEW250
     FM181800 32007KT P6SM SCT050
     FM182300 33006KT P6SM BKN050=



000
FTUS41 KBOX 172322
TAFBAF
TAF
KBAF 172322Z 1800/1824 00000KT P6SM SKC
     FM181400 36006KT P6SM SCT250
     FM181800 34007KT P6SM BKN045=



000
FTUS41 KBOX 172322
TAFACK
TAF
KACK 172322Z 1800/1824 23005KT P6SM SCT020
     FM180600 31004KT P6SM SKC
     FM181200 34008KT P6SM SKC
     FM182100 02008KT P6SM FEW250=



000
FTUS41 KBOX 172322
TAFMHT
TAF
KMHT 172322Z 1800/1824 23004KT P6SM BKN060
     FM180200 00000KT P6SM SKC
     FM181500 33007KT P6SM SCT250
     FM181700 32007KT P6SM BKN050
     FM182200 33008KT P6SM SCT040=



000
FTUS41 KBOX 172322
TAFBDL
TAF
KBDL 172322Z 1800/1906 VRB03KT P6SM SKC
     FM181800 32006KT P6SM BKN040
     FM190200 35006KT P6SM SCT250=



000
FTUS41 KBOX 172322
TAFBOS
TAF
KBOS 172322Z 1800/1906 17006KT P6SM SCT060
     FM180200 23005KT P6SM SKC
     FM181100 29007KT P6SM FEW250
     FM181700 35007KT P6SM SCT250
     FM181900 05008KT P6SM BKN050
     FM190200 36009KT P6SM SCT250=



000
FTUS41 KBOX 172322
TAFORH
TAF
KORH 172322Z 1800/1824 VRB03KT P6SM SKC
     FM181400 32007KT P6SM SCT250
     FM181800 31007KT P6SM BKN050=



000
FTUS41 KBOX 172029 AAA
TAFBDL
TAF AMD
KBDL 172029Z 1720/1824 29006KT P6SM SCT060 SCT250
     FM180000 00000KT P6SM FEW250
     FM181500 34006KT P6SM SCT040 SCT250
     FM181800 32006KT P6SM BKN040=



000
FTUS41 KBOX 172029 AAA
TAFBDL
TAF AMD
KBDL 172029Z 1720/1824 29006KT P6SM SCT060 SCT250
     FM180000 00000KT P6SM FEW250
     FM181500 34006KT P6SM SCT040 SCT250
     FM181800 32006KT P6SM BKN040=



000
FTUS41 KBOX 172028 AAA
TAFPVD
TAF AMD
KPVD 172028Z 1720/1818 16010KT P6SM FEW060
     FM172300 21004KT P6SM FEW250
     FM181100 29004KT P6SM SKC
     FM181500 34008KT P6SM FEW050 SCT250=



000
FTUS41 KBOX 172028 AAA
TAFPVD
TAF AMD
KPVD 172028Z 1720/1818 16010KT P6SM FEW060
     FM172300 21004KT P6SM FEW250
     FM181100 29004KT P6SM SKC
     FM181500 34008KT P6SM FEW050 SCT250=



000
FTUS41 KBOX 172027 AAA
TAFMHT
TAF AMD
KMHT 172027Z 1720/1818 VRB03KT P6SM FEW050
     FM172300 00000KT P6SM FEW250
     FM181500 33007KT P6SM SCT050 SCT250=



000
FTUS41 KBOX 172027 AAA
TAFMHT
TAF AMD
KMHT 172027Z 1720/1818 VRB03KT P6SM FEW050
     FM172300 00000KT P6SM FEW250
     FM181500 33007KT P6SM SCT050 SCT250=



000
FTUS41 KBOX 172026 AAA
TAFBOS
TAF AMD
KBOS 172026Z 1720/1824 11010KT P6SM SCT050
     FM172300 16006KT P6SM SKC
     FM180200 23005KT P6SM SKC
     FM181100 29007KT P6SM SKC
     FM181600 35007KT P6SM SCT050 SCT250
     FM181900 05010KT P6SM BKN050=



000
FTUS41 KBOX 171735
TAFBOS
TAF
KBOS 171735Z 1718/1824 11006KT P6SM SCT050
     FM172300 16006KT P6SM FEW250
     FM180200 23005KT P6SM FEW250
     FM181100 29007KT P6SM SKC
     FM181600 35007KT P6SM SCT050 SCT250
     FM181900 05010KT P6SM BKN050=



000
FTUS41 KBOX 171735
TAFBAF
TAF
KBAF 171735Z 1718/1818 29005KT P6SM BKN050
     FM172100 27006KT P6SM SCT050
     FM172300 VRB03KT P6SM FEW250
     FM181600 35007KT P6SM SCT040 SCT250=



000
FTUS41 KBOX 171735
TAFBDL
TAF
KBDL 171735Z 1718/1824 27005KT P6SM SCT050 SCT250
     FM180000 00000KT P6SM FEW250
     FM181500 34006KT P6SM SCT040 SCT250
     FM181800 32006KT P6SM BKN040=



000
FTUS41 KBOX 171735
TAFORH
TAF
KORH 171735Z 1718/1818 26005KT P6SM FEW050
     FM172300 25004KT P6SM FEW250
     FM181600 32006KT P6SM SCT040 SCT250=



000
FTUS41 KBOX 171735
TAFACK
TAF
KACK 171735Z 1718/1818 18008KT P6SM FEW050
     FM172300 23005KT P6SM SCT250
     FM180800 28004KT P6SM SKC
     FM181400 34008KT P6SM SKC=



000
FTUS41 KBOX 171735
TAFMHT
TAF
KMHT 171735Z 1718/1818 VRB03KT P6SM SCT050
     FM172300 00000KT P6SM SCT250
     FM181500 33007KT P6SM SCT050 SCT250=



000
FTUS41 KBOX 171735
TAFPVD
TAF
KPVD 171735Z 1718/1818 28006KT P6SM FEW060
     FM171900 17007KT P6SM FEW060
     FM172300 21004KT P6SM FEW250
     FM181100 29004KT P6SM SKC
     FM181500 34008KT P6SM FEW050 SCT250=



000
FTUS41 KBOX 171735
TAFBAF
TAF
KBAF 171735Z 1718/1818 29005KT P6SM BKN050
     FM172100 27006KT P6SM SCT050
     FM172300 VRB03KT P6SM FEW250
     FM181600 35007KT P6SM SCT040 SCT250=



000
FTUS41 KBOX 171735
TAFACK
TAF
KACK 171735Z 1718/1818 18008KT P6SM FEW050
     FM172300 23005KT P6SM SCT250
     FM180800 28004KT P6SM SKC
     FM181400 34008KT P6SM SKC=



000
FTUS41 KBOX 171735
TAFBOS
TAF
KBOS 171735Z 1718/1824 11006KT P6SM SCT050
     FM172300 16006KT P6SM FEW250
     FM180200 23005KT P6SM FEW250
     FM181100 29007KT P6SM SKC
     FM181600 35007KT P6SM SCT050 SCT250
     FM181900 05010KT P6SM BKN050=



000
FTUS41 KBOX 171735
TAFMHT
TAF
KMHT 171735Z 1718/1818 VRB03KT P6SM SCT050
     FM172300 00000KT P6SM SCT250
     FM181500 33007KT P6SM SCT050 SCT250=



000
FTUS41 KBOX 171735
TAFBDL
TAF
KBDL 171735Z 1718/1824 27005KT P6SM SCT050 SCT250
     FM180000 00000KT P6SM FEW250
     FM181500 34006KT P6SM SCT040 SCT250
     FM181800 32006KT P6SM BKN040=



000
FTUS41 KBOX 171735
TAFORH
TAF
KORH 171735Z 1718/1818 26005KT P6SM FEW050
     FM172300 25004KT P6SM FEW250
     FM181600 32006KT P6SM SCT040 SCT250=



000
FTUS41 KBOX 171735
TAFPVD
TAF
KPVD 171735Z 1718/1818 28006KT P6SM FEW060
     FM171900 17007KT P6SM FEW060
     FM172300 21004KT P6SM FEW250
     FM181100 29004KT P6SM SKC
     FM181500 34008KT P6SM FEW050 SCT250=



000
FTUS41 KBOX 171508 AAA
TAFBOS
TAF AMD
KBOS 171508Z 1715/1818 10005KT P6SM FEW035
     FM172100 11008KT P6SM FEW250
     FM172300 16007KT P6SM FEW250
     FM180300 22005KT P6SM FEW250
     FM181300 29005KT P6SM SKC=



000
FTUS41 KBOX 171508 AAA
TAFBOS
TAF AMD
KBOS 171508Z 1715/1818 10005KT P6SM FEW035
     FM172100 11008KT P6SM FEW250
     FM172300 16007KT P6SM FEW250
     FM180300 22005KT P6SM FEW250
     FM181300 29005KT P6SM SKC=



000
FTUS41 KBOX 171507 AAA
TAFPVD
TAF AMD
KPVD 171507Z 1715/1812 34004KT P6SM FEW050
     FM171700 16005KT P6SM FEW250
     FM180000 23004KT P6SM FEW250=



000
FTUS41 KBOX 171507 AAA
TAFPVD
TAF AMD
KPVD 171507Z 1715/1812 34004KT P6SM FEW050
     FM171700 16005KT P6SM FEW250
     FM180000 23004KT P6SM FEW250=



000
FTUS41 KBOX 171503 AAA
TAFMHT
TAF AMD
KMHT 171503Z 1715/1812 VRB03KT P6SM FEW035 FEW250
     FM180000 VRB03KT P6SM FEW250=



000
FTUS41 KBOX 171503 AAA
TAFMHT
TAF AMD
KMHT 171503Z 1715/1812 VRB03KT P6SM FEW035 FEW250
     FM180000 VRB03KT P6SM FEW250=



000
FTUS41 KBOX 171500 AAA
TAFBDL
TAF AMD
KBDL 171500Z 1715/1818 VRB03KT P6SM FEW035
     FM180000 VRB03KT P6SM SKC
     FM181500 33006KT P6SM FEW250=



000
FTUS41 KBOX 171500 AAA
TAFBDL
TAF AMD
KBDL 171500Z 1715/1818 VRB03KT P6SM FEW035
     FM180000 VRB03KT P6SM SKC
     FM181500 33006KT P6SM FEW250=



000
FTUS41 KBOX 171121
TAFBDL
TAF
KBDL 171121Z 1712/1818 VRB03KT P6SM SKC
     FM181500 33006KT P6SM FEW250=



000
FTUS41 KBOX 171121
TAFBOS
TAF
KBOS 171121Z 1712/1818 31005KT P6SM FEW080
     FM171500 10005KT P6SM SKC
     FM172100 11008KT P6SM FEW250
     FM172300 16007KT P6SM FEW250
     FM180300 22005KT P6SM FEW250
     FM181300 29005KT P6SM SKC=



000
FTUS41 KBOX 171121
TAFORH
TAF
KORH 171121Z 1712/1812 31008KT P6SM FEW250
     FM172200 25005KT P6SM FEW250=



000
FTUS41 KBOX 171121
TAFMHT
TAF
KMHT 171121Z 1712/1812 VRB03KT P6SM FEW250=



000
FTUS41 KBOX 171121
TAFACK
TAF
KACK 171121Z 1712/1812 VRB03KT P6SM FEW250=



000
FTUS41 KBOX 171121
TAFPVD
TAF
KPVD 171121Z 1712/1812 VRB03KT P6SM FEW080
     FM171700 23004KT P6SM FEW250=



000
FTUS41 KBOX 171121
TAFBAF
TAF
KBAF 171121Z 1712/1812 VRB03KT P6SM SKC=



000
FTUS41 KBOX 171121
TAFACK
TAF
KACK 171121Z 1712/1812 VRB03KT P6SM FEW250=



000
FTUS41 KBOX 171121
TAFBOS
TAF
KBOS 171121Z 1712/1818 31005KT P6SM FEW080
     FM171500 10005KT P6SM SKC
     FM172100 11008KT P6SM FEW250
     FM172300 16007KT P6SM FEW250
     FM180300 22005KT P6SM FEW250
     FM181300 29005KT P6SM SKC=



000
FTUS41 KBOX 171121
TAFBDL
TAF
KBDL 171121Z 1712/1818 VRB03KT P6SM SKC
     FM181500 33006KT P6SM FEW250=



000
FTUS41 KBOX 171121
TAFMHT
TAF
KMHT 171121Z 1712/1812 VRB03KT P6SM FEW250=



000
FTUS41 KBOX 171121
TAFORH
TAF
KORH 171121Z 1712/1812 31008KT P6SM FEW250
     FM172200 25005KT P6SM FEW250=



000
FTUS41 KBOX 171121
TAFBAF
TAF
KBAF 171121Z 1712/1812 VRB03KT P6SM SKC=



000
FTUS41 KBOX 171121
TAFPVD
TAF
KPVD 171121Z 1712/1812 VRB03KT P6SM FEW080
     FM171700 23004KT P6SM FEW250=



000
FTUS41 KBOX 170521
TAFBOS
TAF
KBOS 170521Z 1706/1812 29004KT P6SM FEW080
     FM171300 VRB04KT P6SM SCT250
     FM172000 13008KT P6SM FEW250
     FM180200 21005KT P6SM FEW250
     FM181100 27005KT P6SM SKC=



000
FTUS41 KBOX 170521
TAFMHT
TAF
KMHT 170521Z 1706/1806 00000KT 1/4SM FG BKN002
     FM171300 00000KT P6SM FEW250=



000
FTUS41 KBOX 170521
TAFACK
TAF
KACK 170521Z 1706/1806 00000KT P6SM FEW250=



000
FTUS41 KBOX 170521
TAFPVD
TAF
KPVD 170521Z 1706/1806 VRB03KT P6SM FEW250
     FM172100 19007KT P6SM FEW250
     FM180300 VRB03KT P6SM FEW250=



000
FTUS41 KBOX 170521
TAFORH
TAF
KORH 170521Z 1706/1806 29005KT P6SM SCT250
     FM172100 23005KT P6SM FEW250=



000
FTUS41 KBOX 170521
TAFBDL
TAF
KBDL 170521Z 1706/1812 00000KT P6SM FEW080
     FM172100 24006KT P6SM FEW250
     FM180500 00000KT P6SM FEW250=



000
FTUS41 KBOX 170521
TAFBAF
TAF
KBAF 170521Z 1706/1806 00000KT P6SM SKC=



000
FTUS41 KBOX 170521
TAFACK
TAF
KACK 170521Z 1706/1806 00000KT P6SM FEW250=



000
FTUS41 KBOX 170521
TAFPVD
TAF
KPVD 170521Z 1706/1806 VRB03KT P6SM FEW250
     FM172100 19007KT P6SM FEW250
     FM180300 VRB03KT P6SM FEW250=



000
FTUS41 KBOX 170521
TAFBAF
TAF
KBAF 170521Z 1706/1806 00000KT P6SM SKC=



000
FTUS41 KBOX 170521
TAFMHT
TAF
KMHT 170521Z 1706/1806 00000KT 1/4SM FG BKN002
     FM171300 00000KT P6SM FEW250=



000
FTUS41 KBOX 170521
TAFBDL
TAF
KBDL 170521Z 1706/1812 00000KT P6SM FEW080
     FM172100 24006KT P6SM FEW250
     FM180500 00000KT P6SM FEW250=



000
FTUS41 KBOX 170521
TAFORH
TAF
KORH 170521Z 1706/1806 29005KT P6SM SCT250
     FM172100 23005KT P6SM FEW250=



000
FTUS41 KBOX 170521
TAFBOS
TAF
KBOS 170521Z 1706/1812 29004KT P6SM FEW080
     FM171300 VRB04KT P6SM SCT250
     FM172000 13008KT P6SM FEW250
     FM180200 21005KT P6SM FEW250
     FM181100 27005KT P6SM SKC=



000
FTUS41 KBOX 170414 AAA
TAFMHT
TAF AMD
KMHT 170414Z 1704/1724 16004KT 1/4SM FG BKN002
     FM171100 00000KT 1/2SM FG BKN002
     FM171300 28004KT P6SM SKC=



000
FTUS41 KBOX 170414 AAA
TAFMHT
TAF AMD
KMHT 170414Z 1704/1724 16004KT 1/4SM FG BKN002
     FM171100 00000KT 1/2SM FG BKN002
     FM171300 28004KT P6SM SKC=



000
FTUS41 KBOX 162321
TAFORH
TAF
KORH 162321Z 1700/1724 27004KT P6SM BKN080
     FM170100 27004KT P6SM FEW080
     FM171500 00000KT P6SM FEW250
     FM172100 25006KT P6SM FEW250=



000
FTUS41 KBOX 162321
TAFBOS
TAF
KBOS 162321Z 1700/1806 VRB03KT P6SM BKN070
     FM170200 00000KT P6SM SCT070
     FM171600 10006KT P6SM FEW050
     FM180100 15006KT P6SM FEW050
     FM180400 20005KT P6SM FEW250=



000
FTUS41 KBOX 162321
TAFBDL
TAF
KBDL 162321Z 1700/1806 30006KT P6SM BKN060
     FM170200 30004KT P6SM SCT080=



000
FTUS41 KBOX 162321
TAFMHT
TAF
KMHT 162321Z 1700/1724 16004KT P6SM FEW080
     FM170900 00000KT 4SM BR SCT002
     FM171100 28004KT P6SM SKC=



000
FTUS41 KBOX 162321
TAFACK
TAF
KACK 162321Z 1700/1724 16004KT P6SM SCT080
     FM170600 25004KT P6SM FEW080
     FM171200 01005KT P6SM FEW250
     FM171600 08004KT P6SM FEW250
     FM172000 17004KT P6SM FEW250=



000
FTUS41 KBOX 162321
TAFBAF
TAF
KBAF 162321Z 1700/1724 VRB03KT P6SM FEW080
     FM170900 00000KT 3SM BR SCT002
     FM171200 00000KT P6SM SKC
     FM171600 31005KT P6SM FEW050=



000
FTUS41 KBOX 162321
TAFBAF
TAF
KBAF 162321Z 1700/1724 VRB03KT P6SM FEW080
     FM170900 00000KT 3SM BR SCT002
     FM171200 00000KT P6SM SKC
     FM171600 31005KT P6SM FEW050=



000
FTUS41 KBOX 162321
TAFBDL
TAF
KBDL 162321Z 1700/1806 30006KT P6SM BKN060
     FM170200 30004KT P6SM SCT080=



000
FTUS41 KBOX 162321
TAFMHT
TAF
KMHT 162321Z 1700/1724 16004KT P6SM FEW080
     FM170900 00000KT 4SM BR SCT002
     FM171100 28004KT P6SM SKC=



000
FTUS41 KBOX 162321
TAFORH
TAF
KORH 162321Z 1700/1724 27004KT P6SM BKN080
     FM170100 27004KT P6SM FEW080
     FM171500 00000KT P6SM FEW250
     FM172100 25006KT P6SM FEW250=



000
FTUS41 KBOX 162321
TAFACK
TAF
KACK 162321Z 1700/1724 16004KT P6SM SCT080
     FM170600 25004KT P6SM FEW080
     FM171200 01005KT P6SM FEW250
     FM171600 08004KT P6SM FEW250
     FM172000 17004KT P6SM FEW250=



000
FTUS41 KBOX 162321
TAFBOS
TAF
KBOS 162321Z 1700/1806 VRB03KT P6SM BKN070
     FM170200 00000KT P6SM SCT070
     FM171600 10006KT P6SM FEW050
     FM180100 15006KT P6SM FEW050
     FM180400 20005KT P6SM FEW250=



000
FTUS41 KBOX 162321
TAFPVD
TAF
KPVD 162321Z 1700/1724 25004KT P6SM OVC080
     FM170300 00000KT P6SM SCT080
     FM171200 36006KT P6SM FEW250
     FM171900 17005KT P6SM FEW250=



000
FTUS41 KBOX 162006 AAA
TAFACK
TAF AMD
KACK 162006Z 1620/1718 17006KT P6SM SCT080
     FM170300 19005KT P6SM BKN020
     FM170500 22004KT P6SM BKN035
     FM170900 30004KT P6SM FEW035
     FM171100 35005KT P6SM FEW250
     FM171400 05004KT P6SM FEW250=



000
FTUS41 KBOX 162006 AAA
TAFBOS
TAF AMD
KBOS 162006Z 1620/1724 VRB05KT P6SM BKN040
     FM162200 11004KT P6SM BKN040
     FM171100 VRB04KT P6SM SCT040
     FM171800 10006KT P6SM FEW050=



000
FTUS41 KBOX 162006 AAA
TAFBDL
TAF AMD
KBDL 162006Z 1620/1724 VRB03KT P6SM BKN035
     FM162200 VRB03KT P6SM SCT035
     FM170200 00000KT P6SM FEW250=



000
FTUS41 KBOX 162006 AAA
TAFORH
TAF AMD
KORH 162006Z 1620/1718 28005KT P6SM BKN040
     FM162300 28005KT P6SM SCT035
     FM170900 32006KT P6SM FEW250
     FM171500 00000KT P6SM SCT050=



000
FTUS41 KBOX 162006 AAA
TAFPVD
TAF AMD
KPVD 162006Z 1620/1718 25004KT P6SM BKN040
     FM162300 VRB03KT P6SM SCT035
     FM170400 VRB03KT P6SM FEW250=



000
FTUS41 KBOX 162006 AAA
TAFACK
TAF AMD
KACK 162006Z 1620/1718 17006KT P6SM SCT080
     FM170300 19005KT P6SM BKN020
     FM170500 22004KT P6SM BKN035
     FM170900 30004KT P6SM FEW035
     FM171100 35005KT P6SM FEW250
     FM171400 05004KT P6SM FEW250=



000
FTUS41 KBOX 162006 AAA
TAFBAF
TAF AMD
KBAF 162006Z 1620/1718 30004KT P6SM BKN035
     FM162200 32004KT P6SM SCT035
     FM170900 00000KT 2SM BR SKC
     FM171200 00000KT P6SM SKC=



000
FTUS41 KBOX 162006 AAA
TAFMHT
TAF AMD
KMHT 162006Z 1620/1718 00000KT P6SM SCT025 BKN040
     FM162300 00000KT P6SM SCT040
     FM170700 VRB03KT 3SM BR SCT250
     FM171200 00000KT P6SM FEW250=



000
FTUS41 KBOX 161726
TAFMHT
TAF
KMHT 161726Z 1618/1718 VRB04KT P6SM SCT025 BKN050
     FM162100 00000KT P6SM SCT025
     FM170700 00000KT P6SM FEW250=



000
FTUS41 KBOX 161726
TAFBOS
TAF
KBOS 161726Z 1618/1724 34005KT P6SM OVC040
     FM162100 VRB05KT P6SM BKN040
     FM170100 26004KT P6SM SCT040
     FM171100 31006KT P6SM SKC
     FM171400 05005KT P6SM SKC
     FM171700 11007KT P6SM SKC=



000
FTUS41 KBOX 161726
TAFACK
TAF
KACK 161726Z 1618/1718 17006KT P6SM BKN040
     FM170100 25004KT P6SM SCT035
     FM170700 31005KT P6SM SCT035
     FM171100 01006KT P6SM SCT250
     FM171600 06007KT P6SM FEW250
     FM171700 11007KT P6SM FEW250=



000
FTUS41 KBOX 161726
TAFBOS
TAF
KBOS 161726Z 1618/1724 34005KT P6SM OVC040
     FM162100 VRB05KT P6SM BKN040
     FM170100 26004KT P6SM SCT040
     FM171100 31006KT P6SM SKC
     FM171400 05005KT P6SM SKC
     FM171700 11007KT P6SM SKC=



000
FTUS41 KBOX 161726
TAFORH
TAF
KORH 161726Z 1618/1718 25005KT P6SM SCT025 BKN050
     FM162200 29004KT P6SM SCT025
     FM170400 29005KT P6SM FEW250=



000
FTUS41 KBOX 161726
TAFORH
TAF
KORH 161726Z 1618/1718 25005KT P6SM SCT025 BKN050
     FM162200 29004KT P6SM SCT025
     FM170400 29005KT P6SM FEW250=



000
FTUS41 KBOX 161726
TAFPVD
TAF
KPVD 161726Z 1618/1718 22006KT P6SM BKN035
     FM162300 19004KT P6SM SCT035
     FM170100 27005KT P6SM SCT035
     FM170400 30004KT P6SM FEW250
     FM171400 01004KT P6SM SKC
     FM171700 14005KT P6SM SKC=



000
FTUS41 KBOX 161726
TAFPVD
TAF
KPVD 161726Z 1618/1718 22006KT P6SM BKN035
     FM162300 19004KT P6SM SCT035
     FM170100 27005KT P6SM SCT035
     FM170400 30004KT P6SM FEW250
     FM171400 01004KT P6SM SKC
     FM171700 14005KT P6SM SKC=



000
FTUS41 KBOX 161726
TAFBAF
TAF
KBAF 161726Z 1618/1718 VRB05KT P6SM SCT025
     FM170100 VRB03KT P6SM FEW250=



000
FTUS41 KBOX 161726
TAFBDL
TAF
KBDL 161726Z 1618/1724 VRB03KT P6SM SCT025 BKN050
     FM162100 VRB05KT P6SM SCT025
     FM170200 31004KT P6SM FEW250
     FM172200 25005KT P6SM FEW250=



000
FTUS41 KBOX 161726
TAFBAF
TAF
KBAF 161726Z 1618/1718 VRB05KT P6SM SCT025
     FM170100 VRB03KT P6SM FEW250=



000
FTUS41 KBOX 161726
TAFACK
TAF
KACK 161726Z 1618/1718 17006KT P6SM BKN040
     FM170100 25004KT P6SM SCT035
     FM170700 31005KT P6SM SCT035
     FM171100 01006KT P6SM SCT250
     FM171600 06007KT P6SM FEW250
     FM171700 11007KT P6SM FEW250=



000
FTUS41 KBOX 161726
TAFMHT
TAF
KMHT 161726Z 1618/1718 VRB04KT P6SM SCT025 BKN050
     FM162100 00000KT P6SM SCT025
     FM170700 00000KT P6SM FEW250=



000
FTUS41 KBOX 161726
TAFBDL
TAF
KBDL 161726Z 1618/1724 VRB03KT P6SM SCT025 BKN050
     FM162100 VRB05KT P6SM SCT025
     FM170200 31004KT P6SM FEW250
     FM172200 25005KT P6SM FEW250=



000
FTUS41 KBOX 161619 AAC
TAFBDL
TAF AMD
KBDL 161619Z 1616/1718 VRB06KT P6SM BKN006 BKN040
     FM161800 28007KT P6SM BKN035
     FM162200 30005KT P6SM SCT050
     FM170800 00000KT P6SM SKC=



000
FTUS41 KBOX 161619 AAC
TAFBDL
TAF AMD
KBDL 161619Z 1616/1718 VRB06KT P6SM BKN006 BKN040
     FM161800 28007KT P6SM BKN035
     FM162200 30005KT P6SM SCT050
     FM170800 00000KT P6SM SKC=



000
FTUS41 KBOX 161551 AAB
TAFBAF
TAF AMD
KBAF 161551Z 1616/1712 VRB04KT P6SM BKN007 OVC050
     FM161700 28007KT P6SM BKN040
     FM162000 31007KT P6SM SCT050
     FM170300 00000KT P6SM FEW250=



000
FTUS41 KBOX 161551 AAB
TAFBAF
TAF AMD
KBAF 161551Z 1616/1712 VRB04KT P6SM BKN007 OVC050
     FM161700 28007KT P6SM BKN040
     FM162000 31007KT P6SM SCT050
     FM170300 00000KT P6SM FEW250=



000
FTUS41 KBOX 161537 AAB
TAFBDL
TAF AMD
KBDL 161537Z 1616/1718 VRB06KT P6SM BKN006 BKN040
     FM161600 23006KT P6SM BKN035
     FM161800 28007KT P6SM BKN035
     FM162200 30005KT P6SM SCT050
     FM170800 00000KT P6SM SKC=



000
FTUS41 KBOX 161455 AAA
TAFBDL
TAF AMD
KBDL 161455Z 1615/1718 22006KT P6SM -RA BKN040
     FM161600 23006KT P6SM BKN035
     FM161800 28007KT P6SM BKN035
     FM162200 30005KT P6SM SCT050
     FM170800 00000KT P6SM SKC=



000
FTUS41 KBOX 161455 AAA
TAFBAF
TAF AMD
KBAF 161455Z 1615/1712 24006KT P6SM BKN035
     FM161700 28007KT P6SM BKN040
     FM162000 31007KT P6SM SCT050
     FM170300 00000KT P6SM FEW250=



000
FTUS41 KBOX 161455 AAA
TAFBDL
TAF AMD
KBDL 161455Z 1615/1718 22006KT P6SM -RA BKN040
     FM161600 23006KT P6SM BKN035
     FM161800 28007KT P6SM BKN035
     FM162200 30005KT P6SM SCT050
     FM170800 00000KT P6SM SKC=



000
FTUS41 KBOX 161455 AAA
TAFPVD
TAF AMD
KPVD 161455Z 1615/1712 19006KT P6SM -RA OVC090
     FM161800 21009KT P6SM BKN040
     FM162300 25006KT P6SM SCT050
     FM170800 33004KT P6SM FEW250=



000
FTUS41 KBOX 161455 AAA
TAFMHT
TAF AMD
KMHT 161455Z 1615/1712 VRB04KT P6SM -RA OVC040
     FM161700 19005KT P6SM OVC035
     FM162000 27005KT P6SM BKN040
     FM162200 30004KT P6SM SCT040
     FM170700 00000KT P6SM FEW250=



000
FTUS41 KBOX 161455 AAA
TAFACK
TAF AMD
KACK 161455Z 1615/1712 14009KT P6SM BKN150
     FM162000 17009KT P6SM BKN080
     FM162200 22007KT P6SM SCT070
     FM170300 VRB03KT P6SM SCT035
     FM170600 30004KT P6SM SCT250
     FM171000 36006KT P6SM SCT250=



000
FTUS41 KBOX 161455 AAA
TAFORH
TAF AMD
KORH 161455Z 1615/1712 25005KT P6SM -RA OVC035
     FM161700 25006KT P6SM BKN035
     FM162200 28006KT P6SM SCT050
     FM162300 29005KT P6SM SCT250=



000
FTUS41 KBOX 161455 AAA
TAFMHT
TAF AMD
KMHT 161455Z 1615/1712 VRB04KT P6SM -RA OVC040
     FM161700 19005KT P6SM OVC035
     FM162000 27005KT P6SM BKN040
     FM162200 30004KT P6SM SCT040
     FM170700 00000KT P6SM FEW250=



000
FTUS41 KBOX 161455 AAA
TAFBOS
TAF AMD
KBOS 161455Z 1615/1718 18007KT P6SM -RA OVC050
     FM161800 17008KT P6SM BKN040
     FM162300 24004KT P6SM SCT040
     FM170500 30005KT P6SM SCT040
     FM171400 05005KT P6SM SKC
     FM171700 11007KT P6SM SKC=



000
FTUS41 KBOX 161455 AAA
TAFACK
TAF AMD
KACK 161455Z 1615/1712 14009KT P6SM BKN150
     FM162000 17009KT P6SM BKN080
     FM162200 22007KT P6SM SCT070
     FM170300 VRB03KT P6SM SCT035
     FM170600 30004KT P6SM SCT250
     FM171000 36006KT P6SM SCT250=



000
FTUS41 KBOX 161455 AAA
TAFPVD
TAF AMD
KPVD 161455Z 1615/1712 19006KT P6SM -RA OVC090
     FM161800 21009KT P6SM BKN040
     FM162300 25006KT P6SM SCT050
     FM170800 33004KT P6SM FEW250=



000
FTUS41 KBOX 161455 AAA
TAFBAF
TAF AMD
KBAF 161455Z 1615/1712 24006KT P6SM BKN035
     FM161700 28007KT P6SM BKN040
     FM162000 31007KT P6SM SCT050
     FM170300 00000KT P6SM FEW250=



000
FTUS41 KBOX 161455 AAA
TAFORH
TAF AMD
KORH 161455Z 1615/1712 25005KT P6SM -RA OVC035
     FM161700 25006KT P6SM BKN035
     FM162200 28006KT P6SM SCT050
     FM162300 29005KT P6SM SCT250=



000
FTUS41 KBOX 161455 AAA
TAFBOS
TAF AMD
KBOS 161455Z 1615/1718 18007KT P6SM -RA OVC050
     FM161800 17008KT P6SM BKN040
     FM162300 24004KT P6SM SCT040
     FM170500 30005KT P6SM SCT040
     FM171400 05005KT P6SM SKC
     FM171700 11007KT P6SM SKC=



000
FTUS41 KBOX 161131
TAFBOS
TAF
KBOS 161131Z 1612/1718 VRB03KT P6SM SCT060 OVC150
     FM161300 19006KT P6SM BKN050
     FM161800 20004KT P6SM VCSH BKN030
     FM162200 21004KT P6SM BKN035
     FM170000 26004KT P6SM SCT040
     FM171200 31005KT P6SM SKC
     FM171400 05005KT P6SM SKC
     FM171700 11007KT P6SM SKC=



000
FTUS41 KBOX 161131
TAFBAF
TAF
KBAF 161131Z 1612/1712 VRB03KT P6SM SCT045 OVC070
     FM161300 VRB03KT P6SM -SHRA OVC040
     FM161600 23005KT P6SM OVC040
     FM161800 30008KT P6SM BKN045
     FM161900 30008KT P6SM BKN060
     FM162100 31007KT P6SM SCT200
     FM170100 VRB03KT P6SM FEW250=



000
FTUS41 KBOX 161131
TAFORH
TAF
KORH 161131Z 1612/1712 27004KT P6SM BKN030 OVC050
     FM161300 26005KT P6SM -SHRA OVC030
     FM161600 23005KT P6SM VCSH OVC025
     FM161900 27007KT P6SM BKN035
     FM162300 29005KT P6SM SCT035
     FM170000 29005KT P6SM SCT200=



000
FTUS41 KBOX 161131
TAFMHT
TAF
KMHT 161131Z 1612/1712 00000KT P6SM BKN100 OVC150
     FM161300 00000KT P6SM -SHRA BKN045 OVC060
     FM161600 17005KT P6SM OVC035
     FM161900 23005KT P6SM BKN040
     FM162200 30004KT P6SM BKN040
     FM170000 32004KT P6SM SCT040
     FM170700 00000KT P6SM FEW250=



000
FTUS41 KBOX 161131
TAFBDL
TAF
KBDL 161131Z 1612/1718 00000KT P6SM SCT030 BKN060 OVC100
     FM161400 22006KT P6SM -SHRA OVC035
     FM161700 26007KT P6SM BKN030
     FM161900 27007KT P6SM BKN035
     FM162200 30006KT P6SM SCT250
     FM170800 00000KT P6SM SKC=



000
FTUS41 KBOX 161131
TAFPVD
TAF
KPVD 161131Z 1612/1712 00000KT P6SM SCT015 BKN060 OVC150
     FM161400 VRB03KT P6SM SCT015 BKN050 OVC100
     FM161600 20007KT P6SM VCSH OVC050
     FM162100 25006KT P6SM SCT250
     FM170500 31004KT P6SM FEW250=



000
FTUS41 KBOX 161131
TAFACK
TAF
KACK 161131Z 1612/1712 13006KT P6SM SCT050
     FM161700 19010KT P6SM BKN060 BKN150
     FM162300 24006KT P6SM BKN060
     FM170000 25005KT P6SM SCT060
     FM170700 31005KT P6SM SCT250
     FM171100 01006KT P6SM SCT250=



000
FTUS41 KBOX 161131
TAFACK
TAF
KACK 161131Z 1612/1712 13006KT P6SM SCT050
     FM161700 19010KT P6SM BKN060 BKN150
     FM162300 24006KT P6SM BKN060
     FM170000 25005KT P6SM SCT060
     FM170700 31005KT P6SM SCT250
     FM171100 01006KT P6SM SCT250=



000
FTUS41 KBOX 161131
TAFBDL
TAF
KBDL 161131Z 1612/1718 00000KT P6SM SCT030 BKN060 OVC100
     FM161400 22006KT P6SM -SHRA OVC035
     FM161700 26007KT P6SM BKN030
     FM161900 27007KT P6SM BKN035
     FM162200 30006KT P6SM SCT250
     FM170800 00000KT P6SM SKC=



000
FTUS41 KBOX 161131
TAFORH
TAF
KORH 161131Z 1612/1712 27004KT P6SM BKN030 OVC050
     FM161300 26005KT P6SM -SHRA OVC030
     FM161600 23005KT P6SM VCSH OVC025
     FM161900 27007KT P6SM BKN035
     FM162300 29005KT P6SM SCT035
     FM170000 29005KT P6SM SCT200=



000
FTUS41 KBOX 161131
TAFBAF
TAF
KBAF 161131Z 1612/1712 VRB03KT P6SM SCT045 OVC070
     FM161300 VRB03KT P6SM -SHRA OVC040
     FM161600 23005KT P6SM OVC040
     FM161800 30008KT P6SM BKN045
     FM161900 30008KT P6SM BKN060
     FM162100 31007KT P6SM SCT200
     FM170100 VRB03KT P6SM FEW250=



000
FTUS41 KBOX 161131
TAFBOS
TAF
KBOS 161131Z 1612/1718 VRB03KT P6SM SCT060 OVC150
     FM161300 19006KT P6SM BKN050
     FM161800 20004KT P6SM VCSH BKN030
     FM162200 21004KT P6SM BKN035
     FM170000 26004KT P6SM SCT040
     FM171200 31005KT P6SM SKC
     FM171400 05005KT P6SM SKC
     FM171700 11007KT P6SM SKC=



000
FTUS41 KBOX 161131
TAFPVD
TAF
KPVD 161131Z 1612/1712 00000KT P6SM SCT015 BKN060 OVC150
     FM161400 VRB03KT P6SM SCT015 BKN050 OVC100
     FM161600 20007KT P6SM VCSH OVC050
     FM162100 25006KT P6SM SCT250
     FM170500 31004KT P6SM FEW250=



000
FTUS41 KBOX 161131
TAFMHT
TAF
KMHT 161131Z 1612/1712 00000KT P6SM BKN100 OVC150
     FM161300 00000KT P6SM -SHRA BKN045 OVC060
     FM161600 17005KT P6SM OVC035
     FM161900 23005KT P6SM BKN040
     FM162200 30004KT P6SM BKN040
     FM170000 32004KT P6SM SCT040
     FM170700 00000KT P6SM FEW250=



000
FTUS41 KBOX 160809 AAA
TAFPVD
TAF AMD
KPVD 160809Z 1608/1706 VRB03KT P6SM SCT150
     FM161300 VRB03KT P6SM BKN050
     FM161600 20007KT P6SM OVC040
     FM162300 25006KT P6SM SCT250=



000
FTUS41 KBOX 160809 AAA
TAFPVD
TAF AMD
KPVD 160809Z 1608/1706 VRB03KT P6SM SCT150
     FM161300 VRB03KT P6SM BKN050
     FM161600 20007KT P6SM OVC040
     FM162300 25006KT P6SM SCT250=



000
FTUS41 KBOX 160809 AAA
TAFMHT
TAF AMD
KMHT 160809Z 1608/1706 00000KT P6SM BKN150
     FM161200 00000KT P6SM -SHRA OVC070
     FM161600 VRB03KT P6SM OVC035
     FM162000 28004KT P6SM BKN035
     FM170000 32004KT P6SM SCT040
     FM170200 VRB03KT P6SM SCT250=



000
FTUS41 KBOX 160809 AAA
TAFMHT
TAF AMD
KMHT 160809Z 1608/1706 00000KT P6SM BKN150
     FM161200 00000KT P6SM -SHRA OVC070
     FM161600 VRB03KT P6SM OVC035
     FM162000 28004KT P6SM BKN035
     FM170000 32004KT P6SM SCT040
     FM170200 VRB03KT P6SM SCT250=



000
FTUS41 KBOX 160809 AAA
TAFBDL
TAF AMD
KBDL 160809Z 1608/1712 VRB03KT P6SM BKN150
     FM161200 23006KT P6SM -SHRA OVC040
     FM161600 24006KT P6SM OVC040
     FM161800 28007KT P6SM BKN045
     FM162200 30006KT P6SM SCT250=



000
FTUS41 KBOX 160809 AAA
TAFBDL
TAF AMD
KBDL 160809Z 1608/1712 VRB03KT P6SM BKN150
     FM161200 23006KT P6SM -SHRA OVC040
     FM161600 24006KT P6SM OVC040
     FM161800 28007KT P6SM BKN045
     FM162200 30006KT P6SM SCT250=



000
FTUS41 KBOX 160808 AAA
TAFBOS
TAF AMD
KBOS 160808Z 1608/1712 18003KT P6SM SCT140
     FM161500 10004KT P6SM BKN060
     FM161900 12006KT P6SM BKN035
     FM162200 21004KT P6SM BKN040
     FM170000 26004KT P6SM SCT050
     FM170400 29005KT P6SM SCT250=



    US Dept of Commerce
    National Oceanic and Atmospheric Administration
    National Weather Service
    1325 East West Highway
    Silver Spring, MD 20910
    Page Author: NWS Internet Services Team
Disclaimer
Information Quality
Credits
Glossary
Privacy Policy
Freedom of Information Act (FOIA)
About Us
Career Opportunities